aviador You're here:

KMCF Decoded Metar

TAMPA in FL, USA
Report Time2017-12-16 02:56:00
UTC Time2017-12-16 03:41:17
Flight Rules vfr VFR
WindCalm
Visibility9999 m
Phenomena:N/A
Clouds:N/A
Expected CloudBase > 400 ft AGL from Temp-Dew spread
CeilingNone
Temp14°C (ISA -1)
Dew Point13°C (94% RH)
QNH1022 hPa
Density Alt-207 ft
Elevation13 ft
Report Wrong Elevation
Raw Report
KMCF 160256Z COR 00000KT 10SM CLR 14/13 A3017 RMK AO2A SLP170
T01520136 $=

Extra information for KMCF:More info

Metar Taf Metar & Taf Last 4 Metars F.Rules Stats Wind Profile Meteogram Temp Stats Airport Information Weather charts Add Link Nearby VenuesMetar ALERT Operation Metar Decoded Social comments

AIRNAV info for KMCF